sensor_id;sensor_type;location;lat;lon;timestamp;P1;durP1;ratioP1;P2;durP2;ratioP2
33644;SDS011;19986;48.190;16.366;2023-01-15T05:06:11;46.22;;;43.83;;
33644;SDS011;19986;48.190;16.366;2023-01-15T05:08:40;47.85;;;45.25;;
33644;SDS011;19986;48.190;16.366;2023-01-15T05:11:06;46.15;;;43.75;;
33644;SDS011;19986;48.190;16.366;2023-01-15T05:13:32;47.88;;;45.22;;
33644;SDS011;19986;48.190;16.366;2023-01-15T05:18:36;46.85;;;44.30;;
33644;SDS011;19986;48.190;16.366;2023-01-15T05:21:03;44.75;;;42.25;;
33644;SDS011;19986;48.190;16.366;2023-01-15T05:23:29;47.90;;;45.13;;
33644;SDS011;19986;48.190;16.366;2023-01-15T05:25:55;46.40;;;43.90;;
33644;SDS011;19986;48.190;16.366;2023-01-15T05:28:21;46.80;;;44.20;;
33644;SDS011;19986;48.190;16.366;2023-01-15T05:30:47;45.40;;;43.08;;
33644;SDS011;19986;48.190;16.366;2023-01-15T05:33:12;46.03;;;43.63;;
33644;SDS011;19986;48.190;16.366;2023-01-15T05:35:38;48.00;;;44.83;;
33644;SDS011;19986;48.190;16.366;2023-01-15T05:38:04;46.22;;;43.83;;
33644;SDS011;19986;48.190;16.366;2023-01-15T05:40:31;45.95;;;43.65;;
33644;SDS011;19986;48.190;16.366;2023-01-15T05:42:57;46.58;;;44.08;;
33644;SDS011;19986;48.190;16.366;2023-01-15T05:45:23;44.22;;;41.92;;
33644;SDS011;19986;48.190;16.366;2023-01-15T05:47:49;47.00;;;44.50;;
33644;SDS011;19986;48.190;16.366;2023-01-15T05:50:17;49.10;;;45.42;;
33644;SDS011;19986;48.190;16.366;2023-01-15T05:52:43;46.75;;;44.28;;
33644;SDS011;19986;48.190;16.366;2023-01-15T05:55:09;46.08;;;43.58;;
33644;SDS011;19986;48.190;16.366;2023-01-15T05:57:35;47.25;;;44.78;;
33644;SDS011;19986;48.190;16.366;2023-01-15T06:00:01;47.08;;;44.58;;
33644;SDS011;19986;48.190;16.366;2023-01-15T06:02:28;47.10;;;44.60;;
33644;SDS011;19986;48.190;16.366;2023-01-15T06:04:55;45.45;;;43.13;;
33644;SDS011;19986;48.190;16.366;2023-01-15T06:07:21;47.95;;;45.25;;
33644;SDS011;19986;48.190;16.366;2023-01-15T06:09:46;47.92;;;45.50;;
33644;SDS011;19986;48.190;16.366;2023-01-15T06:12:12;46.83;;;44.33;;
33644;SDS011;19986;48.190;16.366;2023-01-15T06:14:38;46.75;;;44.25;;
33644;SDS011;19986;48.190;16.366;2023-01-15T06:17:04;45.95;;;43.42;;
33644;SDS011;19986;48.190;16.366;2023-01-15T06:19:30;47.83;;;45.10;;
33644;SDS011;19986;48.190;16.366;2023-01-15T06:21:56;47.08;;;44.33;;
33644;SDS011;19986;48.190;16.366;2023-01-15T06:24:22;47.47;;;44.88;;
33644;SDS011;19986;48.190;16.366;2023-01-15T06:26:47;48.38;;;45.88;;
33644;SDS011;19986;48.190;16.366;2023-01-15T06:29:13;47.10;;;44.75;;
33644;SDS011;19986;48.190;16.366;2023-01-15T06:31:42;47.10;;;44.40;;
33644;SDS011;19986;48.190;16.366;2023-01-15T06:34:08;48.03;;;45.42;;
33644;SDS011;19986;48.190;16.366;2023-01-15T06:36:34;46.63;;;44.05;;
33644;SDS011;19986;48.190;16.366;2023-01-15T06:39:00;45.67;;;43.17;;
33644;SDS011;19986;48.190;16.366;2023-01-15T06:41:26;46.85;;;44.40;;
33644;SDS011;19986;48.190;16.366;2023-01-15T06:44:12;47.63;;;45.13;;
33644;SDS011;19986;48.190;16.366;2023-01-15T06:47:00;49.03;;;46.22;;
33644;SDS011;19986;48.190;16.366;2023-01-15T06:49:45;46.80;;;44.17;;
33644;SDS011;19986;48.190;16.366;2023-01-15T06:52:11;45.83;;;43.42;;
33644;SDS011;19986;48.190;16.366;2023-01-15T06:54:37;43.65;;;41.28;;
33644;SDS011;19986;48.190;16.366;2023-01-15T06:57:03;46.00;;;43.45;;
33644;SDS011;19986;48.190;16.366;2023-01-15T06:59:30;45.47;;;43.00;;
33644;SDS011;19986;48.190;16.366;2023-01-15T07:01:56;44.92;;;42.53;;
33644;SDS011;19986;48.190;16.366;2023-01-15T07:04:21;45.70;;;43.20;;
33644;SDS011;19986;48.190;16.366;2023-01-15T07:06:47;46.88;;;43.90;;
33644;SDS011;19986;48.190;16.366;2023-01-15T07:09:13;46.67;;;44.28;;
33644;SDS011;19986;48.190;16.366;2023-01-15T07:11:39;44.78;;;42.47;;
33644;SDS011;19986;48.190;16.366;2023-01-15T07:14:17;46.03;;;43.72;;
33644;SDS011;19986;48.190;16.366;2023-01-15T07:16:45;47.15;;;44.65;;
33644;SDS011;19986;48.190;16.366;2023-01-15T07:19:11;44.75;;;42.47;;
33644;SDS011;19986;48.190;16.366;2023-01-15T07:21:37;47.10;;;44.55;;
33644;SDS011;19986;48.190;16.366;2023-01-15T07:24:03;46.70;;;44.17;;
33644;SDS011;19986;48.190;16.366;2023-01-15T07:26:30;44.88;;;42.45;;
33644;SDS011;19986;48.190;16.366;2023-01-15T07:28:55;45.67;;;43.35;;
33644;SDS011;19986;48.190;16.366;2023-01-15T07:31:21;45.97;;;43.63;;
33644;SDS011;19986;48.190;16.366;2023-01-15T07:33:47;46.20;;;43.90;;
33644;SDS011;19986;48.190;16.366;2023-01-15T07:36:13;46.67;;;44.38;;
33644;SDS011;19986;48.190;16.366;2023-01-15T07:38:39;47.78;;;45.15;;
33644;SDS011;19986;48.190;16.366;2023-01-15T07:41:05;45.05;;;42.67;;
33644;SDS011;19986;48.190;16.366;2023-01-15T07:43:49;45.60;;;43.20;;
33644;SDS011;19986;48.190;16.366;2023-01-15T07:46:33;45.53;;;43.03;;
33644;SDS011;19986;48.190;16.366;2023-01-15T07:49:18;48.42;;;45.83;;
33644;SDS011;19986;48.190;16.366;2023-01-15T07:52:03;45.65;;;43.15;;
33644;SDS011;19986;48.190;16.366;2023-01-15T07:54:29;46.00;;;43.58;;
33644;SDS011;19986;48.190;16.366;2023-01-15T07:56:54;43.53;;;41.22;;
33644;SDS011;19986;48.190;16.366;2023-01-15T07:59:21;46.35;;;43.95;;
33644;SDS011;19986;48.190;16.366;2023-01-15T08:01:47;44.90;;;42.60;;
33644;SDS011;19986;48.190;16.366;2023-01-15T08:04:13;47.58;;;45.00;;
33644;SDS011;19986;48.190;16.366;2023-01-15T08:06:39;47.58;;;44.97;;
33644;SDS011;19986;48.190;16.366;2023-01-15T08:09:05;46.40;;;43.80;;
33644;SDS011;19986;48.190;16.366;2023-01-15T08:11:32;47.20;;;44.70;;
33644;SDS011;19986;48.190;16.366;2023-01-15T08:14:16;47.22;;;44.83;;
33644;SDS011;19986;48.190;16.366;2023-01-15T08:17:01;46.67;;;44.17;;
33644;SDS011;19986;48.190;16.366;2023-01-15T08:19:28;46.25;;;43.85;;
33644;SDS011;19986;48.190;16.366;2023-01-15T08:21:56;43.95;;;41.65;;
33644;SDS011;19986;48.190;16.366;2023-01-15T08:24:23;45.95;;;43.55;;
33644;SDS011;19986;48.190;16.366;2023-01-15T08:26:49;48.85;;;46.08;;
33644;SDS011;19986;48.190;16.366;2023-01-15T08:29:16;48.58;;;46.08;;
33644;SDS011;19986;48.190;16.366;2023-01-15T08:31:41;45.78;;;43.15;;
33644;SDS011;19986;48.190;16.366;2023-01-15T08:34:07;46.10;;;43.72;;
33644;SDS011;19986;48.190;16.366;2023-01-15T08:36:33;45.42;;;42.88;;
33644;SDS011;19986;48.190;16.366;2023-01-15T08:38:59;46.85;;;44.35;;
33644;SDS011;19986;48.190;16.366;2023-01-15T08:41:25;46.13;;;43.65;;
33644;SDS011;19986;48.190;16.366;2023-01-15T08:43:51;46.53;;;44.13;;
33644;SDS011;19986;48.190;16.366;2023-01-15T08:46:17;49.03;;;46.42;;
33644;SDS011;19986;48.190;16.366;2023-01-15T08:48:43;46.50;;;44.00;;
33644;SDS011;19986;48.190;16.366;2023-01-15T08:51:09;46.35;;;43.85;;
33644;SDS011;19986;48.190;16.366;2023-01-15T08:53:36;46.67;;;44.05;;
33644;SDS011;19986;48.190;16.366;2023-01-15T08:56:02;46.97;;;44.58;;
33644;SDS011;19986;48.190;16.366;2023-01-15T08:58:29;48.00;;;45.50;;
33644;SDS011;19986;48.190;16.366;2023-01-15T09:01:03;46.58;;;44.28;;
33644;SDS011;19986;48.190;16.366;2023-01-15T09:03:31;46.60;;;44.03;;
33644;SDS011;19986;48.190;16.366;2023-01-15T09:05:57;47.75;;;45.08;;
33644;SDS011;19986;48.190;16.366;2023-01-15T09:08:24;46.88;;;44.08;;
33644;SDS011;19986;48.190;16.366;2023-01-15T09:10:50;46.30;;;43.88;;
33644;SDS011;19986;48.190;16.366;2023-01-15T09:13:16;44.08;;;41.78;;
33644;SDS011;19986;48.190;16.366;2023-01-15T09:15:41;45.78;;;43.38;;
33644;SDS011;19986;48.190;16.366;2023-01-15T09:18:08;47.88;;;45.40;;
33644;SDS011;19986;48.190;16.366;2023-01-15T09:20:36;45.60;;;43.30;;
33644;SDS011;19986;48.190;16.366;2023-01-15T09:23:02;45.45;;;43.08;;
33644;SDS011;19986;48.190;16.366;2023-01-15T09:25:28;44.80;;;42.40;;
33644;SDS011;19986;48.190;16.366;2023-01-15T09:27:54;47.35;;;44.85;;
33644;SDS011;19986;48.190;16.366;2023-01-15T09:30:20;46.83;;;44.33;;
33644;SDS011;19986;48.190;16.366;2023-01-15T09:32:56;47.33;;;44.90;;
33644;SDS011;19986;48.190;16.366;2023-01-15T09:35:23;47.53;;;45.13;;
33644;SDS011;19986;48.190;16.366;2023-01-15T09:37:50;45.38;;;42.92;;
33644;SDS011;19986;48.190;16.366;2023-01-15T09:40:24;47.65;;;45.22;;
33644;SDS011;19986;48.190;16.366;2023-01-15T09:46:28;45.17;;;42.78;;
33644;SDS011;19986;48.190;16.366;2023-01-15T09:49:12;47.70;;;45.03;;
33644;SDS011;19986;48.190;16.366;2023-01-15T09:57:28;49.30;;;46.55;;
33644;SDS011;19986;48.190;16.366;2023-01-15T09:59:54;46.60;;;44.00;;
33644;SDS011;19986;48.190;16.366;2023-01-15T10:02:32;48.67;;;45.88;;
33644;SDS011;19986;48.190;16.366;2023-01-15T10:05:14;46.92;;;44.45;;
33644;SDS011;19986;48.190;16.366;2023-01-15T10:10:25;47.58;;;44.97;;
33644;SDS011;19986;48.190;16.366;2023-01-15T10:12:59;48.75;;;46.05;;
33644;SDS011;19986;48.190;16.366;2023-01-15T10:15:39;47.17;;;44.58;;
33644;SDS011;19986;48.190;16.366;2023-01-15T10:18:16;46.80;;;44.30;;
33644;SDS011;19986;48.190;16.366;2023-01-15T10:26:22;46.35;;;44.05;;
33644;SDS011;19986;48.190;16.366;2023-01-15T10:29:04;47.55;;;45.05;;
33644;SDS011;19986;48.190;16.366;2023-01-15T10:31:51;47.33;;;44.92;;
33644;SDS011;19986;48.190;16.366;2023-01-15T10:37:02;47.72;;;45.20;;
33644;SDS011;19986;48.190;16.366;2023-01-15T10:47:45;48.38;;;45.75;;
33644;SDS011;19986;48.190;16.366;2023-01-15T10:50:18;48.63;;;45.97;;
33644;SDS011;19986;48.190;16.366;2023-01-15T10:55:37;47.35;;;44.85;;
33644;SDS011;19986;48.190;16.366;2023-01-15T11:00:46;47.92;;;45.22;;
33644;SDS011;19986;48.190;16.366;2023-01-15T11:03:36;47.17;;;44.67;;
33644;SDS011;19986;48.190;16.366;2023-01-15T11:06:05;46.30;;;43.80;;
33644;SDS011;19986;48.190;16.366;2023-01-15T11:08:43;50.25;;;47.45;;
33644;SDS011;19986;48.190;16.366;2023-01-15T11:11:35;48.50;;;45.88;;
33644;SDS011;19986;48.190;16.366;2023-01-15T11:14:17;47.53;;;44.92;;
33644;SDS011;19986;48.190;16.366;2023-01-15T11:17:02;47.22;;;44.63;;
33644;SDS011;19986;48.190;16.366;2023-01-15T11:19:52;48.20;;;45.40;;
33644;SDS011;19986;48.190;16.366;2023-01-15T11:22:18;49.28;;;46.75;;
33644;SDS011;19986;48.190;16.366;2023-01-15T11:24:55;47.42;;;44.92;;
33644;SDS011;19986;48.190;16.366;2023-01-15T11:27:25;48.80;;;45.95;;
33644;SDS011;19986;48.190;16.366;2023-01-15T11:29:55;47.60;;;45.05;;
33644;SDS011;19986;48.190;16.366;2023-01-15T11:32:32;47.22;;;44.72;;
33644;SDS011;19986;48.190;16.366;2023-01-15T11:35:16;46.13;;;43.70;;
33644;SDS011;19986;48.190;16.366;2023-01-15T11:37:43;47.13;;;44.35;;
33644;SDS011;19986;48.190;16.366;2023-01-15T11:40:14;47.53;;;44.78;;
33644;SDS011;19986;48.190;16.366;2023-01-15T11:42:46;48.67;;;46.08;;
33644;SDS011;19986;48.190;16.366;2023-01-15T11:45:32;47.83;;;45.30;;
33644;SDS011;19986;48.190;16.366;2023-01-15T11:48:19;48.08;;;45.38;;
33644;SDS011;19986;48.190;16.366;2023-01-15T11:51:13;49.20;;;46.50;;
33644;SDS011;19986;48.190;16.366;2023-01-15T11:53:45;46.65;;;44.03;;
33644;SDS011;19986;48.190;16.366;2023-01-15T11:56:19;48.55;;;45.95;;
33644;SDS011;19986;48.190;16.366;2023-01-15T11:58:49;47.05;;;44.40;;
33644;SDS011;19986;48.190;16.366;2023-01-15T12:01:22;46.38;;;43.80;;
33644;SDS011;19986;48.190;16.366;2023-01-15T12:03:55;45.72;;;43.13;;
33644;SDS011;19986;48.190;16.366;2023-01-15T12:06:22;46.45;;;43.90;;
33644;SDS011;19986;48.190;16.366;2023-01-15T12:09:12;47.42;;;44.83;;
33644;SDS011;19986;48.190;16.366;2023-01-15T12:22:42;49.42;;;46.63;;
33644;SDS011;19986;48.190;16.366;2023-01-15T12:31:00;49.90;;;47.17;;
33644;SDS011;19986;48.190;16.366;2023-01-15T12:36:54;49.75;;;46.85;;
33644;SDS011;19986;48.190;16.366;2023-01-15T12:39:34;50.40;;;47.47;;
33644;SDS011;19986;48.190;16.366;2023-01-15T12:42:10;47.38;;;44.67;;
33644;SDS011;19986;48.190;16.366;2023-01-15T12:45:01;46.95;;;44.20;;
33644;SDS011;19986;48.190;16.366;2023-01-15T12:47:47;46.97;;;44.28;;
33644;SDS011;19986;48.190;16.366;2023-01-15T12:56:15;46.88;;;43.97;;
33644;SDS011;19986;48.190;16.366;2023-01-15T12:59:12;48.75;;;45.92;;
33644;SDS011;19986;48.190;16.366;2023-01-15T13:05:19;51.35;;;48.33;;
33644;SDS011;19986;48.190;16.366;2023-01-15T13:07:29;50.15;;;47.33;;
33644;SDS011;19986;48.190;16.366;2023-01-15T13:12:44;50.92;;;47.97;;
33644;SDS011;19986;48.190;16.366;2023-01-15T13:15:14;48.78;;;45.97;;
33644;SDS011;19986;48.190;16.366;2023-01-15T13:17:50;48.13;;;45.33;;
33644;SDS011;19986;48.190;16.366;2023-01-15T13:20:30;47.80;;;44.95;;
33644;SDS011;19986;48.190;16.366;2023-01-15T13:23:13;48.45;;;45.53;;
33644;SDS011;19986;48.190;16.366;2023-01-15T13:34:35;50.75;;;47.55;;
33644;SDS011;19986;48.190;16.366;2023-01-15T13:37:27;47.80;;;44.92;;
33644;SDS011;19986;48.190;16.366;2023-01-15T13:42:43;50.47;;;47.58;;
33644;SDS011;19986;48.190;16.366;2023-01-15T13:47:43;51.20;;;48.00;;
33644;SDS011;19986;48.190;16.366;2023-01-15T13:50:12;48.85;;;45.92;;
33644;SDS011;19986;48.190;16.366;2023-01-15T13:53:04;52.28;;;48.88;;
33644;SDS011;19986;48.190;16.366;2023-01-15T13:55:39;52.05;;;48.95;;
33644;SDS011;19986;48.190;16.366;2023-01-15T13:58:21;51.75;;;48.75;;
33644;SDS011;19986;48.190;16.366;2023-01-15T14:03:58;50.55;;;47.70;;
33644;SDS011;19986;48.190;16.366;2023-01-15T14:06:34;50.53;;;47.63;;
33644;SDS011;19986;48.190;16.366;2023-01-15T14:09:05;50.20;;;47.08;;
33644;SDS011;19986;48.190;16.366;2023-01-15T14:11:38;46.28;;;43.55;;
33644;SDS011;19986;48.190;16.366;2023-01-15T14:25:23;50.25;;;47.25;;
33644;SDS011;19986;48.190;16.366;2023-01-15T14:35:44;51.97;;;48.88;;
33644;SDS011;19986;48.190;16.366;2023-01-15T14:38:12;50.53;;;47.42;;
33644;SDS011;19986;48.190;16.366;2023-01-15T14:41:15;52.08;;;49.00;;
33644;SDS011;19986;48.190;16.366;2023-01-15T14:43:37;51.67;;;48.67;;
33644;SDS011;19986;48.190;16.366;2023-01-15T14:48:52;54.60;;;51.00;;
33644;SDS011;19986;48.190;16.366;2023-01-15T14:51:25;50.53;;;47.42;;
33644;SDS011;19986;48.190;16.366;2023-01-15T14:53:57;49.95;;;46.83;;
33644;SDS011;19986;48.190;16.366;2023-01-15T14:56:34;51.83;;;48.42;;
33644;SDS011;19986;48.190;16.366;2023-01-15T14:59:20;51.22;;;47.85;;
33644;SDS011;19986;48.190;16.366;2023-01-15T15:01:51;51.60;;;48.63;;
33644;SDS011;19986;48.190;16.366;2023-01-15T15:07:14;50.33;;;47.40;;
33644;SDS011;19986;48.190;16.366;2023-01-15T15:09:54;51.50;;;48.25;;
33644;SDS011;19986;48.190;16.366;2023-01-15T15:23:27;51.92;;;48.60;;
33644;SDS011;19986;48.190;16.366;2023-01-15T15:28:54;50.63;;;47.65;;
33644;SDS011;19986;48.190;16.366;2023-01-15T15:31:39;50.00;;;46.58;;
33644;SDS011;19986;48.190;16.366;2023-01-15T15:34:19;50.85;;;47.88;;
33644;SDS011;19986;48.190;16.366;2023-01-15T15:36:50;50.90;;;47.70;;
33644;SDS011;19986;48.190;16.366;2023-01-15T15:39:24;50.70;;;47.60;;
33644;SDS011;19986;48.190;16.366;2023-01-15T15:41:59;53.42;;;50.38;;
33644;SDS011;19986;48.190;16.366;2023-01-15T15:44:51;51.40;;;48.38;;
33644;SDS011;19986;48.190;16.366;2023-01-15T15:47:42;50.42;;;47.33;;
33644;SDS011;19986;48.190;16.366;2023-01-15T15:50:30;50.60;;;47.58;;
33644;SDS011;19986;48.190;16.366;2023-01-15T15:52:59;50.38;;;47.28;;
33644;SDS011;19986;48.190;16.366;2023-01-15T15:55:35;48.03;;;45.30;;
33644;SDS011;19986;48.190;16.366;2023-01-15T15:58:07;52.08;;;48.90;;
33644;SDS011;19986;48.190;16.366;2023-01-15T16:00:41;50.58;;;47.65;;
33644;SDS011;19986;48.190;16.366;2023-01-15T16:03:22;50.60;;;47.50;;
33644;SDS011;19986;48.190;16.366;2023-01-15T16:06:03;48.13;;;45.33;;
33644;SDS011;19986;48.190;16.366;2023-01-15T16:08:33;47.75;;;44.90;;
33644;SDS011;19986;48.190;16.366;2023-01-15T16:11:01;46.33;;;43.83;;
33644;SDS011;19986;48.190;16.366;2023-01-15T16:16:12;51.88;;;48.38;;
33644;SDS011;19986;48.190;16.366;2023-01-15T16:18:59;49.05;;;46.05;;
33644;SDS011;19986;48.190;16.366;2023-01-15T16:21:31;46.85;;;44.25;;
33644;SDS011;19986;48.190;16.366;2023-01-15T16:26:32;48.58;;;45.97;;
33644;SDS011;19986;48.190;16.366;2023-01-15T16:29:02;43.58;;;41.38;;
33644;SDS011;19986;48.190;16.366;2023-01-15T16:31:33;44.22;;;41.90;;
33644;SDS011;19986;48.190;16.366;2023-01-15T16:34:01;45.83;;;43.45;;
33644;SDS011;19986;48.190;16.366;2023-01-15T16:36:36;44.95;;;42.67;;
33644;SDS011;19986;48.190;16.366;2023-01-15T16:39:04;43.05;;;40.90;;
33644;SDS011;19986;48.190;16.366;2023-01-15T16:41:40;44.72;;;42.42;;
33644;SDS011;19986;48.190;16.366;2023-01-15T16:44:06;45.75;;;43.55;;
33644;SDS011;19986;48.190;16.366;2023-01-15T16:46:50;43.40;;;41.33;;
33644;SDS011;19986;48.190;16.366;2023-01-15T16:51:54;43.15;;;41.15;;
33644;SDS011;19986;48.190;16.366;2023-01-15T16:56:57;44.08;;;42.03;;
33644;SDS011;19986;48.190;16.366;2023-01-15T17:01:54;44.28;;;42.10;;
33644;SDS011;19986;48.190;16.366;2023-01-15T17:04:43;42.20;;;40.20;;
33644;SDS011;19986;48.190;16.366;2023-01-15T17:07:15;45.17;;;42.88;;
33644;SDS011;19986;48.190;16.366;2023-01-15T17:10:04;44.03;;;42.03;;
33644;SDS011;19986;48.190;16.366;2023-01-15T17:12:43;43.50;;;41.40;;
33644;SDS011;19986;48.190;16.366;2023-01-15T17:17:41;45.50;;;43.30;;
33644;SDS011;19986;48.190;16.366;2023-01-15T17:20:16;43.78;;;41.67;;
33644;SDS011;19986;48.190;16.366;2023-01-15T17:22:44;43.72;;;41.53;;
33644;SDS011;19986;48.190;16.366;2023-01-15T17:25:22;42.30;;;40.22;;
33644;SDS011;19986;48.190;16.366;2023-01-15T17:27:54;42.55;;;40.55;;
33644;SDS011;19986;48.190;16.366;2023-01-15T17:30:21;42.50;;;40.53;;
33644;SDS011;19986;48.190;16.366;2023-01-15T17:33:02;45.25;;;43.15;;
33644;SDS011;19986;48.190;16.366;2023-01-15T17:35:31;45.20;;;43.00;;
33644;SDS011;19986;48.190;16.366;2023-01-15T17:37:59;44.25;;;42.10;;
33644;SDS011;19986;48.190;16.366;2023-01-15T17:40:26;46.00;;;43.70;;
33644;SDS011;19986;48.190;16.366;2023-01-15T17:42:53;43.42;;;41.33;;
33644;SDS011;19986;48.190;16.366;2023-01-15T17:45:27;44.38;;;42.38;;
33644;SDS011;19986;48.190;16.366;2023-01-15T17:47:55;42.53;;;40.53;;
33644;SDS011;19986;48.190;16.366;2023-01-15T17:50:21;44.40;;;42.40;;
33644;SDS011;19986;48.190;16.366;2023-01-15T17:52:48;41.85;;;39.75;;
33644;SDS011;19986;48.190;16.366;2023-01-15T17:55:15;44.83;;;42.78;;
33644;SDS011;19986;48.190;16.366;2023-01-15T17:58:02;45.72;;;43.53;;
33644;SDS011;19986;48.190;16.366;2023-01-15T18:00:46;42.15;;;40.22;;
33644;SDS011;19986;48.190;16.366;2023-01-15T18:03:32;40.78;;;38.88;;
33644;SDS011;19986;48.190;16.366;2023-01-15T18:06:18;43.95;;;41.85;;
33644;SDS011;19986;48.190;16.366;2023-01-15T18:08:49;44.17;;;42.17;;
33644;SDS011;19986;48.190;16.366;2023-01-15T18:11:20;45.15;;;43.05;;
33644;SDS011;19986;48.190;16.366;2023-01-15T18:13:46;41.47;;;39.38;;
33644;SDS011;19986;48.190;16.366;2023-01-15T18:16:16;45.40;;;43.10;;
33644;SDS011;19986;48.190;16.366;2023-01-15T18:18:43;45.00;;;42.80;;
33644;SDS011;19986;48.190;16.366;2023-01-15T18:21:09;41.72;;;39.83;;
33644;SDS011;19986;48.190;16.366;2023-01-15T18:23:35;42.95;;;40.95;;
33644;SDS011;19986;48.190;16.366;2023-01-15T18:26:07;44.83;;;42.65;;
33644;SDS011;19986;48.190;16.366;2023-01-15T18:28:38;42.05;;;40.10;;
33644;SDS011;19986;48.190;16.366;2023-01-15T18:31:04;42.40;;;40.45;;
33644;SDS011;19986;48.190;16.366;2023-01-15T18:33:32;44.40;;;42.30;;
33644;SDS011;19986;48.190;16.366;2023-01-15T18:36:06;44.65;;;42.55;;
33644;SDS011;19986;48.190;16.366;2023-01-15T18:38:38;42.55;;;40.55;;
33644;SDS011;19986;48.190;16.366;2023-01-15T18:41:09;40.15;;;38.38;;
33644;SDS011;19986;48.190;16.366;2023-01-15T18:43:36;41.45;;;39.55;;
33644;SDS011;19986;48.190;16.366;2023-01-15T18:46:20;48.92;;;46.33;;
33644;SDS011;19986;48.190;16.366;2023-01-15T18:49:05;42.65;;;40.65;;
33644;SDS011;19986;48.190;16.366;2023-01-15T18:51:33;43.88;;;41.88;;
33644;SDS011;19986;48.190;16.366;2023-01-15T18:53:59;42.88;;;40.88;;
33644;SDS011;19986;48.190;16.366;2023-01-15T18:56:25;43.80;;;41.63;;
33644;SDS011;19986;48.190;16.366;2023-01-15T18:59:11;40.78;;;38.85;;
33644;SDS011;19986;48.190;16.366;2023-01-15T19:01:39;44.47;;;42.35;;
33644;SDS011;19986;48.190;16.366;2023-01-15T19:04:07;45.83;;;43.72;;
33644;SDS011;19986;48.190;16.366;2023-01-15T19:06:35;43.10;;;41.17;;
33644;SDS011;19986;48.190;16.366;2023-01-15T19:09:03;43.72;;;41.72;;
33644;SDS011;19986;48.190;16.366;2023-01-15T19:11:30;44.97;;;42.88;;
33644;SDS011;19986;48.190;16.366;2023-01-15T19:13:58;42.92;;;41.03;;
33644;SDS011;19986;48.190;16.366;2023-01-15T19:16:43;41.75;;;39.85;;
33644;SDS011;19986;48.190;16.366;2023-01-15T19:19:29;42.28;;;40.17;;
33644;SDS011;19986;48.190;16.366;2023-01-15T19:21:55;43.80;;;41.70;;
33644;SDS011;19986;48.190;16.366;2023-01-15T19:24:40;43.25;;;41.25;;
33644;SDS011;19986;48.190;16.366;2023-01-15T19:27:06;42.78;;;40.67;;
33644;SDS011;19986;48.190;16.366;2023-01-15T19:29:34;43.63;;;41.63;;
33644;SDS011;19986;48.190;16.366;2023-01-15T19:32:01;42.00;;;40.10;;
33644;SDS011;19986;48.190;16.366;2023-01-15T19:34:28;44.30;;;42.30;;
33644;SDS011;19986;48.190;16.366;2023-01-15T19:36:56;43.13;;;41.22;;
33644;SDS011;19986;48.190;16.366;2023-01-15T19:39:27;42.42;;;40.42;;
33644;SDS011;19986;48.190;16.366;2023-01-15T19:41:54;42.38;;;40.38;;
33644;SDS011;19986;48.190;16.366;2023-01-15T19:44:40;43.55;;;41.45;;
33644;SDS011;19986;48.190;16.366;2023-01-15T19:47:30;42.13;;;40.08;;
33644;SDS011;19986;48.190;16.366;2023-01-15T19:50:19;46.28;;;44.08;;
33644;SDS011;19986;48.190;16.366;2023-01-15T19:52:57;43.13;;;41.15;;
33644;SDS011;19986;48.190;16.366;2023-01-15T19:55:24;40.70;;;38.80;;
33644;SDS011;19986;48.190;16.366;2023-01-15T19:57:56;40.78;;;38.90;;
33644;SDS011;19986;48.190;16.366;2023-01-15T20:00:24;44.20;;;42.10;;
33644;SDS011;19986;48.190;16.366;2023-01-15T20:02:51;42.83;;;40.83;;
33644;SDS011;19986;48.190;16.366;2023-01-15T20:05:18;43.17;;;41.17;;
33644;SDS011;19986;48.190;16.366;2023-01-15T20:07:44;43.25;;;41.25;;
33644;SDS011;19986;48.190;16.366;2023-01-15T20:10:11;43.88;;;41.95;;
33644;SDS011;19986;48.190;16.366;2023-01-15T20:12:48;43.58;;;41.63;;
33644;SDS011;19986;48.190;16.366;2023-01-15T20:15:35;42.75;;;40.80;;
33644;SDS011;19986;48.190;16.366;2023-01-15T20:18:06;41.28;;;39.38;;
33644;SDS011;19986;48.190;16.366;2023-01-15T20:20:33;41.47;;;39.65;;
33644;SDS011;19986;48.190;16.366;2023-01-15T20:22:59;42.47;;;40.53;;
33644;SDS011;19986;48.190;16.366;2023-01-15T20:25:26;44.67;;;42.67;;
33644;SDS011;19986;48.190;16.366;2023-01-15T20:27:54;41.85;;;39.95;;
33644;SDS011;19986;48.190;16.366;2023-01-15T20:30:22;43.88;;;41.78;;
33644;SDS011;19986;48.190;16.366;2023-01-15T20:32:49;41.35;;;39.55;;
33644;SDS011;19986;48.190;16.366;2023-01-15T20:35:20;43.13;;;41.22;;
33644;SDS011;19986;48.190;16.366;2023-01-15T20:37:49;42.65;;;40.67;;
33644;SDS011;19986;48.190;16.366;2023-01-15T20:40:16;43.90;;;41.92;;
33644;SDS011;19986;48.190;16.366;2023-01-15T20:42:46;44.58;;;42.58;;
33644;SDS011;19986;48.190;16.366;2023-01-15T20:45:35;42.28;;;40.38;;
33644;SDS011;19986;48.190;16.366;2023-01-15T20:48:01;41.00;;;39.17;;
33644;SDS011;19986;48.190;16.366;2023-01-15T20:50:40;44.55;;;42.45;;
33644;SDS011;19986;48.190;16.366;2023-01-15T20:53:26;41.15;;;39.25;;
33644;SDS011;19986;48.190;16.366;2023-01-15T20:56:00;44.38;;;42.25;;
33644;SDS011;19986;48.190;16.366;2023-01-15T20:58:27;43.65;;;41.55;;
